createdAt,value
2023-05-02T00:00:24.942Z,4.82
2023-05-02T00:01:27.181Z,4.28
2023-05-02T00:02:29.598Z,4.13
2023-05-02T00:03:32.832Z,4.50
2023-05-02T00:04:35.208Z,4.80
2023-05-02T00:05:37.535Z,4.50
2023-05-02T00:06:39.879Z,4.50
2023-05-02T00:07:42.119Z,4.97
2023-05-02T00:08:44.253Z,4.55
2023-05-02T00:09:46.560Z,4.28
2023-05-02T00:10:48.909Z,4.57
2023-05-02T00:11:51.011Z,4.68
2023-05-02T00:12:53.107Z,4.18
2023-05-02T00:13:55.269Z,4.82
2023-05-02T00:14:57.297Z,4.45
2023-05-02T00:15:59.415Z,4.85
2023-05-02T00:17:01.656Z,4.07
2023-05-02T00:18:03.915Z,5.13
2023-05-02T00:19:06.159Z,4.75
2023-05-02T00:20:11.946Z,4.45
2023-05-02T00:21:14.187Z,4.80
2023-05-02T00:22:16.269Z,4.80
2023-05-02T00:23:18.436Z,4.78
2023-05-02T00:24:20.567Z,4.18
2023-05-02T00:25:23.642Z,5.05
2023-05-02T00:26:26.893Z,4.90
2023-05-02T00:27:30.050Z,4.85
2023-05-02T00:28:33.549Z,4.25
2023-05-02T00:29:35.757Z,4.80
2023-05-02T00:30:43.109Z,4.85
2023-05-02T00:31:45.205Z,4.57
2023-05-02T00:32:47.305Z,4.50
2023-05-02T00:33:49.434Z,4.60
2023-05-02T00:34:51.540Z,4.60
2023-05-02T00:35:53.653Z,4.53
2023-05-02T00:36:55.786Z,4.80
2023-05-02T00:37:59.682Z,3.88
2023-05-02T00:39:01.777Z,4.45
2023-05-02T00:40:05.182Z,4.78
2023-05-02T00:41:07.295Z,4.22
2023-05-02T00:42:09.497Z,4.50
2023-05-02T00:43:11.882Z,4.18
2023-05-02T00:44:13.982Z,3.97
2023-05-02T00:45:16.366Z,4.05
2023-05-02T00:46:18.573Z,4.25
2023-05-02T00:47:21.062Z,4.93
2023-05-02T00:48:23.400Z,4.50
2023-05-02T00:49:25.488Z,4.30
2023-05-02T00:50:29.200Z,3.95
2023-05-02T00:51:34.197Z,4.55
2023-05-02T00:52:37.496Z,4.00
2023-05-02T00:53:40.596Z,5.03
2023-05-02T00:54:43.846Z,4.28
2023-05-02T00:55:46.414Z,4.00
2023-05-02T00:56:48.551Z,3.95
2023-05-02T00:57:50.678Z,4.40
2023-05-02T00:58:52.984Z,4.05
2023-05-02T00:59:55.408Z,4.57
2023-05-02T01:01:16.190Z,4.03
2023-05-02T01:02:59.610Z,4.20
2023-05-02T01:04:15.794Z,4.13
2023-05-02T01:05:25.811Z,4.70
2023-05-02T01:06:43.335Z,5.13
2023-05-02T01:07:54.595Z,4.45
2023-05-02T01:09:06.879Z,4.03
2023-05-02T01:10:17.983Z,4.28
2023-05-02T01:12:34.454Z,4.07
2023-05-02T01:13:37.936Z,3.78
2023-05-02T01:14:45.987Z,4.20
2023-05-02T01:15:49.230Z,4.32
2023-05-02T01:16:52.993Z,4.43
2023-05-02T01:17:56.596Z,3.72
2023-05-02T01:18:59.762Z,4.70
2023-05-02T01:20:14.618Z,4.28
2023-05-02T01:21:16.800Z,4.10
2023-05-02T01:22:20.160Z,4.07
2023-05-02T01:23:48.168Z,3.75
2023-05-02T01:25:02.145Z,4.30
2023-05-02T01:26:14.420Z,4.13
2023-05-02T01:27:36.854Z,4.20
2023-05-02T01:29:01.212Z,4.30
2023-05-02T01:30:04.701Z,4.63
2023-05-02T01:31:06.994Z,4.22
2023-05-02T01:32:09.481Z,4.40
2023-05-02T01:33:14.239Z,4.57
2023-05-02T01:34:18.461Z,5.03
2023-05-02T01:35:21.501Z,4.40
2023-05-02T01:36:27.030Z,4.88
2023-05-02T01:37:30.405Z,5.32
2023-05-02T01:38:34.021Z,5.22
2023-05-02T01:39:36.850Z,5.18
2023-05-02T01:40:39.326Z,4.93
2023-05-02T01:41:42.754Z,5.07
2023-05-02T01:42:46.706Z,5.45
2023-05-02T01:43:48.997Z,6.38
2023-05-02T01:44:51.974Z,5.93
2023-05-02T01:45:54.427Z,5.40
2023-05-02T01:46:56.989Z,5.53
2023-05-02T01:48:01.010Z,4.95
2023-05-02T01:49:04.233Z,5.18
2023-05-02T01:50:08.872Z,5.07
2023-05-02T01:52:14.204Z,4.85
2023-05-02T01:53:17.400Z,4.68
2023-05-02T01:54:22.913Z,5.28
2023-05-02T01:55:26.026Z,4.95
2023-05-02T01:56:30.467Z,4.60
2023-05-02T01:57:32.818Z,3.88
2023-05-02T01:58:36.246Z,4.78
2023-05-02T01:59:40.391Z,4.57
2023-05-02T02:00:45.222Z,4.13
2023-05-02T02:01:48.516Z,4.43
2023-05-02T02:02:51.688Z,4.40
2023-05-02T02:03:55.959Z,4.32
2023-05-02T02:04:59.377Z,4.13
2023-05-02T02:06:03.457Z,4.72
2023-05-02T02:07:08.929Z,4.45
2023-05-02T02:08:11.046Z,4.28
2023-05-02T02:09:13.293Z,4.25
2023-05-02T02:10:15.483Z,4.40
2023-05-02T02:11:21.137Z,5.10
2023-05-02T02:12:41.183Z,4.00
2023-05-02T02:13:50.777Z,5.10
2023-05-02T02:15:16.207Z,4.88
2023-05-02T02:16:25.874Z,4.95
2023-05-02T02:17:32.588Z,5.30
2023-05-02T02:18:37.222Z,3.88
2023-05-02T02:19:41.127Z,4.75
2023-05-02T02:20:44.113Z,4.60
2023-05-02T02:21:47.295Z,4.38
2023-05-02T02:22:50.096Z,4.50
2023-05-02T02:23:54.196Z,4.40
2023-05-02T02:24:57.148Z,3.90
2023-05-02T02:26:00.249Z,4.88
2023-05-02T02:27:02.616Z,5.45
2023-05-02T02:28:04.957Z,5.07
2023-05-02T02:29:07.040Z,4.15
2023-05-02T02:30:10.161Z,4.25
2023-05-02T02:31:12.249Z,4.80
2023-05-02T02:32:14.336Z,4.10
2023-05-02T02:33:16.422Z,4.82
2023-05-02T02:34:36.902Z,4.70
2023-05-02T02:35:42.810Z,5.25
2023-05-02T02:36:48.256Z,4.30
2023-05-02T02:38:15.281Z,4.75
2023-05-02T02:39:54.494Z,4.70
2023-05-02T02:41:02.564Z,4.65
2023-05-02T02:42:25.002Z,4.38
2023-05-02T02:43:34.085Z,4.25
2023-05-02T02:44:50.977Z,4.18
2023-05-02T02:46:01.368Z,4.60
2023-05-02T02:47:06.200Z,5.18
2023-05-02T02:48:20.912Z,4.97
2023-05-02T02:49:33.181Z,5.13
2023-05-02T02:50:35.296Z,4.65
2023-05-02T02:51:46.881Z,5.18
2023-05-02T02:52:54.008Z,4.63
2023-05-02T02:54:23.042Z,4.90
2023-05-02T02:55:32.058Z,5.10
2023-05-02T02:56:40.479Z,5.95
2023-05-02T02:57:57.658Z,6.13
2023-05-02T02:59:06.748Z,5.70
2023-05-02T03:00:34.638Z,5.78
2023-05-02T03:01:58.633Z,6.05
2023-05-02T03:03:00.814Z,5.45
2023-05-02T03:04:05.080Z,6.18
2023-05-02T03:05:07.921Z,5.80
2023-05-02T03:06:10.110Z,5.57
2023-05-02T03:07:12.293Z,5.97
2023-05-02T03:08:14.369Z,5.53
2023-05-02T03:09:20.079Z,6.20
2023-05-02T03:10:22.701Z,5.53
2023-05-02T03:11:24.809Z,6.60
2023-05-02T03:12:26.971Z,6.30
2023-05-02T03:13:29.068Z,5.75
2023-05-02T03:14:31.198Z,5.55
2023-05-02T03:15:51.605Z,6.68
2023-05-02T03:16:53.798Z,6.50
2023-05-02T03:17:55.993Z,6.38
2023-05-02T03:18:58.468Z,5.75
2023-05-02T03:20:00.785Z,6.35
2023-05-02T03:21:03.185Z,6.18
2023-05-02T03:22:05.768Z,6.28
2023-05-02T03:23:07.955Z,5.47
2023-05-02T03:24:10.043Z,6.15
2023-05-02T03:25:12.574Z,6.30
2023-05-02T03:26:14.805Z,5.85
2023-05-02T03:27:17.125Z,6.10
2023-05-02T03:28:19.181Z,5.97
2023-05-02T03:29:21.265Z,6.03
2023-05-02T03:30:23.470Z,5.78
2023-05-02T03:31:26.585Z,5.30
2023-05-02T03:32:29.114Z,6.30
2023-05-02T03:33:31.304Z,5.72
2023-05-02T03:34:33.485Z,6.03
2023-05-02T03:35:35.643Z,5.63
2023-05-02T03:36:37.871Z,5.38
2023-05-02T03:37:40.010Z,5.28
2023-05-02T03:38:42.422Z,5.38
2023-05-02T03:39:44.941Z,5.43
2023-05-02T03:40:47.072Z,5.38
2023-05-02T03:41:49.202Z,4.93
2023-05-02T03:42:51.366Z,5.32
2023-05-02T03:43:53.482Z,4.68
2023-05-02T03:44:55.779Z,5.18
2023-05-02T03:45:57.918Z,4.45
2023-05-02T03:47:00.143Z,5.30
2023-05-02T03:48:02.412Z,4.97
2023-05-02T03:49:04.572Z,5.25
2023-05-02T03:50:07.529Z,5.35
2023-05-02T03:51:10.040Z,5.50
2023-05-02T03:52:12.380Z,5.70
2023-05-02T03:53:16.152Z,5.03
2023-05-02T03:54:18.330Z,5.18
2023-05-02T03:55:21.319Z,5.43
2023-05-02T03:56:23.423Z,5.72
2023-05-02T03:57:25.665Z,5.75
2023-05-02T03:58:28.396Z,5.60
2023-05-02T03:59:35.049Z,5.10
2023-05-02T04:00:38.334Z,5.82
2023-05-02T04:01:40.463Z,5.28
2023-05-02T04:02:42.712Z,4.88
2023-05-02T04:03:45.077Z,5.93
2023-05-02T04:04:47.675Z,4.82
2023-05-02T04:05:51.564Z,5.30
2023-05-02T04:06:53.806Z,4.88
2023-05-02T04:07:57.021Z,5.60
2023-05-02T04:08:59.728Z,4.80
2023-05-02T04:10:02.281Z,5.20
2023-05-02T04:11:04.711Z,4.55
2023-05-02T04:12:06.965Z,5.13
2023-05-02T04:13:09.087Z,5.40
2023-05-02T04:14:11.327Z,4.47
2023-05-02T04:15:13.498Z,5.13
2023-05-02T04:16:15.745Z,5.53
2023-05-02T04:17:18.115Z,5.22
2023-05-02T04:18:20.547Z,4.65
2023-05-02T04:19:22.640Z,5.10
2023-05-02T04:20:24.761Z,5.03
2023-05-02T04:21:27.707Z,5.25
2023-05-02T04:22:29.788Z,5.05
2023-05-02T04:23:33.016Z,4.60
2023-05-02T04:24:35.365Z,4.63
2023-05-02T04:25:37.441Z,4.28
2023-05-02T04:26:39.579Z,4.93
2023-05-02T04:27:41.657Z,4.93
2023-05-02T04:28:43.811Z,5.57
2023-05-02T04:29:49.863Z,5.05
2023-05-02T04:30:52.156Z,5.30
2023-05-02T04:31:54.376Z,5.40
2023-05-02T04:32:57.084Z,5.05
2023-05-02T04:33:59.269Z,5.03
2023-05-02T04:35:01.606Z,5.65
2023-05-02T04:36:03.922Z,5.63
2023-05-02T04:37:06.444Z,6.10
2023-05-02T04:38:08.881Z,5.50
2023-05-02T04:39:10.976Z,5.28
2023-05-02T04:40:13.589Z,6.70
2023-05-02T04:41:16.001Z,5.40
2023-05-02T04:42:18.152Z,5.40
2023-05-02T04:43:21.042Z,5.45
2023-05-02T04:44:23.962Z,5.10
2023-05-02T04:45:26.170Z,6.00
2023-05-02T04:46:28.386Z,5.40
2023-05-02T04:47:30.978Z,5.03
2023-05-02T04:48:33.734Z,6.22
2023-05-02T04:49:36.251Z,5.22
2023-05-02T04:50:38.368Z,5.88
2023-05-02T04:51:40.489Z,4.75
2023-05-02T04:52:42.597Z,5.72
2023-05-02T04:53:44.836Z,5.30
2023-05-02T04:54:46.939Z,5.22
2023-05-02T04:55:49.528Z,5.85
2023-05-02T04:56:51.588Z,5.50
2023-05-02T04:57:53.742Z,5.05
2023-05-02T04:58:56.026Z,4.32
2023-05-02T04:59:58.287Z,5.13
2023-05-02T05:01:01.972Z,5.65
2023-05-02T05:02:04.482Z,5.60
2023-05-02T05:03:06.932Z,5.90
2023-05-02T05:04:09.268Z,5.57
2023-05-02T05:05:11.604Z,5.18
2023-05-02T05:06:13.808Z,5.47
2023-05-02T05:07:16.253Z,5.45
2023-05-02T05:08:18.655Z,5.45
2023-05-02T05:09:20.806Z,5.07
2023-05-02T05:10:22.900Z,5.78
2023-05-02T05:11:26.499Z,5.18
2023-05-02T05:12:28.569Z,5.50
2023-05-02T05:13:30.776Z,5.50
2023-05-02T05:14:33.024Z,5.57
2023-05-02T05:15:35.203Z,5.95
2023-05-02T05:16:37.616Z,5.53
2023-05-02T05:17:39.882Z,5.95
2023-05-02T05:18:42.585Z,5.25
2023-05-02T05:19:44.684Z,6.03
2023-05-02T05:20:46.878Z,6.05
2023-05-02T05:21:49.037Z,5.40
2023-05-02T05:22:51.243Z,5.80
2023-05-02T05:23:53.372Z,5.78
2023-05-02T05:24:55.591Z,5.70
2023-05-02T05:25:57.970Z,6.10
2023-05-02T05:27:00.162Z,5.75
2023-05-02T05:28:02.310Z,5.00
2023-05-02T05:29:04.385Z,6.07
2023-05-02T05:30:07.504Z,5.30
2023-05-02T05:31:11.336Z,5.82
2023-05-02T05:32:13.491Z,5.75
2023-05-02T05:33:15.765Z,5.90
2023-05-02T05:34:18.181Z,6.40
2023-05-02T05:35:20.384Z,6.13
2023-05-02T05:36:23.658Z,5.82
2023-05-02T05:37:25.942Z,5.72
2023-05-02T05:38:28.111Z,6.05
2023-05-02T05:39:30.215Z,6.60
2023-05-02T05:40:32.291Z,6.13
2023-05-02T05:41:35.186Z,5.55
2023-05-02T05:42:37.267Z,6.05
2023-05-02T05:43:39.417Z,6.78
2023-05-02T05:44:41.555Z,6.53
2023-05-02T05:45:43.861Z,6.38
2023-05-02T05:46:46.147Z,6.63
2023-05-02T05:47:48.457Z,6.32
2023-05-02T05:48:50.653Z,5.93
2023-05-02T05:49:54.011Z,5.45
2023-05-02T05:50:56.125Z,6.10
2023-05-02T05:51:58.504Z,6.35
2023-05-02T05:53:00.783Z,6.53
2023-05-02T05:54:02.973Z,6.40
2023-05-02T05:55:05.922Z,5.82
2023-05-02T05:56:11.673Z,6.68
2023-05-02T05:57:13.869Z,6.75
2023-05-02T05:58:16.087Z,5.97
2023-05-02T05:59:18.173Z,6.10
2023-05-02T06:00:20.572Z,5.85
2023-05-02T06:01:22.674Z,6.40
2023-05-02T06:02:24.881Z,6.38
2023-05-02T06:03:27.211Z,5.95
2023-05-02T06:04:29.724Z,6.25
2023-05-02T06:05:31.914Z,6.72
2023-05-02T06:06:34.449Z,5.85
2023-05-02T06:07:36.621Z,7.28
2023-05-02T06:08:39.291Z,5.75
2023-05-02T06:09:41.539Z,5.82
2023-05-02T06:10:43.654Z,6.13
2023-05-02T06:11:45.774Z,6.43
2023-05-02T06:12:49.282Z,7.68
2023-05-02T06:13:52.235Z,6.93
2023-05-02T06:14:54.368Z,6.78
2023-05-02T06:16:01.138Z,6.57
2023-05-02T06:17:03.325Z,6.60
2023-05-02T06:18:05.473Z,6.25
2023-05-02T06:19:07.624Z,6.53
2023-05-02T06:20:10.090Z,5.50
2023-05-02T06:21:12.246Z,6.43
2023-05-02T06:22:14.441Z,6.05
2023-05-02T06:23:16.640Z,6.05
2023-05-02T06:24:18.749Z,5.82
2023-05-02T06:25:21.110Z,5.55
2023-05-02T06:26:23.290Z,5.03
2023-05-02T06:27:25.424Z,6.25
2023-05-02T06:28:28.152Z,6.00
2023-05-02T06:29:30.393Z,6.05
2023-05-02T06:30:32.612Z,6.43
2023-05-02T06:31:34.889Z,6.40
2023-05-02T06:32:37.112Z,5.72
2023-05-02T06:33:39.369Z,6.15
2023-05-02T06:34:41.637Z,5.68
2023-05-02T06:35:43.744Z,6.05
2023-05-02T06:36:45.836Z,6.07
2023-05-02T06:37:47.938Z,6.57
2023-05-02T06:38:50.008Z,5.43
2023-05-02T06:39:52.105Z,6.00
2023-05-02T06:40:54.228Z,6.07
2023-05-02T06:41:59.190Z,6.00
2023-05-02T06:43:01.342Z,5.13
2023-05-02T06:44:03.414Z,5.63
2023-05-02T06:45:05.877Z,5.75
2023-05-02T06:46:08.640Z,5.43
2023-05-02T06:47:10.943Z,4.90
2023-05-02T06:48:13.281Z,5.53
2023-05-02T06:49:15.608Z,5.60
2023-05-02T06:50:17.861Z,5.63
2023-05-02T06:51:21.262Z,5.05
2023-05-02T06:52:23.456Z,5.32
2023-05-02T06:53:25.618Z,5.40
2023-05-02T06:54:27.826Z,6.00
2023-05-02T06:55:30.033Z,7.45
2023-05-02T06:56:32.175Z,6.63
2023-05-02T06:57:34.369Z,11.77
2023-05-02T06:58:36.586Z,6.70
2023-05-02T06:59:38.725Z,4.80
2023-05-02T07:00:41.199Z,5.63
2023-05-02T07:01:46.421Z,5.10
2023-05-02T07:02:49.238Z,4.68
2023-05-02T07:03:52.364Z,5.43
2023-05-02T07:04:54.473Z,5.47
2023-05-02T07:05:56.795Z,5.40
2023-05-02T07:06:58.945Z,5.43
2023-05-02T07:08:01.034Z,5.00
2023-05-02T07:09:03.158Z,5.05
2023-05-02T07:10:05.775Z,5.25
2023-05-02T07:11:07.882Z,5.35
2023-05-02T07:12:09.982Z,4.90
2023-05-02T07:13:12.156Z,4.95
2023-05-02T07:14:14.323Z,4.72
2023-05-02T07:15:17.092Z,5.05
2023-05-02T07:16:19.259Z,4.90
2023-05-02T07:17:21.472Z,5.80
2023-05-02T07:18:23.579Z,5.13
2023-05-02T07:19:25.887Z,4.75
2023-05-02T07:20:28.007Z,6.13
2023-05-02T07:21:30.375Z,4.93
2023-05-02T07:22:32.470Z,4.78
2023-05-02T07:23:34.721Z,4.95
2023-05-02T07:24:40.760Z,4.85
2023-05-02T07:25:42.867Z,6.20
2023-05-02T07:26:45.243Z,6.10
2023-05-02T07:27:47.410Z,5.05
2023-05-02T07:28:49.521Z,4.88
2023-05-02T07:29:51.936Z,5.43
2023-05-02T07:30:54.185Z,5.55
2023-05-02T07:31:56.668Z,6.20
2023-05-02T07:32:58.898Z,5.75
2023-05-02T07:34:01.042Z,5.50
2023-05-02T07:35:03.226Z,5.07
2023-05-02T07:36:05.647Z,5.13
2023-05-02T07:37:07.775Z,5.10
2023-05-02T07:38:09.924Z,5.68
2023-05-02T07:39:12.037Z,5.60
2023-05-02T07:40:14.373Z,6.18
2023-05-02T07:41:16.718Z,4.68
2023-05-02T07:42:18.861Z,4.82
2023-05-02T07:43:20.960Z,5.05
2023-05-02T07:44:23.087Z,5.25
2023-05-02T07:45:25.263Z,5.28
2023-05-02T07:46:27.348Z,5.05
2023-05-02T07:47:29.626Z,5.22
2023-05-02T07:48:32.272Z,5.50
2023-05-02T07:49:34.359Z,5.20
2023-05-02T07:50:36.521Z,5.05
2023-05-02T07:51:39.971Z,5.03
2023-05-02T07:52:42.122Z,4.97
2023-05-02T07:53:44.492Z,5.00
2023-05-02T07:54:48.585Z,5.63
2023-05-02T07:55:50.856Z,5.25
2023-05-02T07:56:53.039Z,6.28
2023-05-02T07:57:55.220Z,5.00
2023-05-02T07:58:57.371Z,5.40
2023-05-02T08:00:00.098Z,5.20
2023-05-02T08:01:02.521Z,5.25
2023-05-02T08:02:05.140Z,5.50
2023-05-02T08:03:07.748Z,5.07
2023-05-02T08:04:11.651Z,5.38
2023-05-02T08:05:14.073Z,5.68
2023-05-02T08:06:16.286Z,5.57
2023-05-02T08:07:18.411Z,4.40
2023-05-02T08:08:20.597Z,4.85
2023-05-02T08:09:23.244Z,5.50
2023-05-02T08:10:25.720Z,4.57
2023-05-02T08:11:27.870Z,4.93
2023-05-02T08:12:29.992Z,5.07
2023-05-02T08:13:32.111Z,5.43
2023-05-02T08:14:34.363Z,4.95
2023-05-02T08:15:36.552Z,5.55
2023-05-02T08:16:38.985Z,5.05
2023-05-02T08:17:41.438Z,4.78
2023-05-02T08:18:43.630Z,5.30
2023-05-02T08:19:45.895Z,4.75
2023-05-02T08:20:48.428Z,5.03
2023-05-02T08:21:50.717Z,5.70
2023-05-02T08:22:52.924Z,5.03
2023-05-02T08:23:58.488Z,5.38
2023-05-02T08:25:00.872Z,5.00
2023-05-02T08:26:02.982Z,4.90
2023-05-02T08:27:05.110Z,4.80
2023-05-02T08:28:07.213Z,4.78
2023-05-02T08:29:11.701Z,4.72
2023-05-02T08:30:14.382Z,4.80
2023-05-02T08:31:16.503Z,4.75
2023-05-02T08:32:18.705Z,4.15
2023-05-02T08:33:21.136Z,4.60
2023-05-02T08:34:23.326Z,4.80
2023-05-02T08:35:25.474Z,5.00
2023-05-02T08:36:28.855Z,4.13
2023-05-02T08:37:32.155Z,5.20
2023-05-02T08:38:34.266Z,4.75
2023-05-02T08:39:36.353Z,4.65
2023-05-02T08:40:42.666Z,5.50
2023-05-02T08:41:45.516Z,4.90
2023-05-02T08:42:47.817Z,5.03
2023-05-02T08:43:49.970Z,4.90
2023-05-02T08:44:52.536Z,4.70
2023-05-02T08:45:55.839Z,5.88
2023-05-02T08:47:00.620Z,4.32
2023-05-02T08:48:07.353Z,4.43
2023-05-02T08:49:13.355Z,4.50
2023-05-02T08:50:16.480Z,4.18
2023-05-02T08:52:22.296Z,4.07
2023-05-02T08:53:24.772Z,4.97
2023-05-02T08:54:27.140Z,5.43
2023-05-02T08:55:29.258Z,5.35
2023-05-02T08:56:32.766Z,4.60
2023-05-02T08:57:34.943Z,4.25
2023-05-02T08:58:40.809Z,4.60
2023-05-02T08:59:43.283Z,3.90
2023-05-02T09:00:48.292Z,4.50
2023-05-02T09:01:53.099Z,4.50
2023-05-02T09:03:17.057Z,4.50
2023-05-02T09:04:24.864Z,4.55
2023-05-02T09:05:27.256Z,4.30
2023-05-02T09:06:29.480Z,4.35
2023-05-02T09:07:31.656Z,4.45
2023-05-02T09:08:34.664Z,4.30
2023-05-02T09:09:37.703Z,4.53
2023-05-02T09:10:42.358Z,4.07
2023-05-02T09:11:47.268Z,3.90
2023-05-02T09:12:49.591Z,3.85
2023-05-02T09:13:52.788Z,4.03
2023-05-02T09:15:17.712Z,3.63
2023-05-02T09:16:23.803Z,4.63
2023-05-02T09:17:26.054Z,4.07
2023-05-02T09:18:33.287Z,4.18
2023-05-02T09:19:35.436Z,4.68
2023-05-02T09:20:41.081Z,3.63
2023-05-02T09:21:43.429Z,4.00
2023-05-02T09:22:50.779Z,4.13
2023-05-02T09:23:58.106Z,3.85
2023-05-02T09:25:01.483Z,3.60
2023-05-02T09:26:20.299Z,3.65
2023-05-02T09:27:22.455Z,4.13
2023-05-02T09:28:46.757Z,3.67
2023-05-02T09:29:48.914Z,3.90
2023-05-02T09:30:51.206Z,3.42
2023-05-02T09:31:56.324Z,4.07
2023-05-02T09:32:59.196Z,4.00
2023-05-02T09:34:19.655Z,4.03
2023-05-02T09:35:24.923Z,3.78
2023-05-02T09:36:39.620Z,3.60
2023-05-02T09:37:42.052Z,4.15
2023-05-02T09:38:45.652Z,4.10
2023-05-02T09:40:05.847Z,3.85
2023-05-02T09:41:08.585Z,3.85
2023-05-02T09:42:10.871Z,3.85
2023-05-02T09:43:17.188Z,4.03
2023-05-02T09:44:21.366Z,3.63
2023-05-02T09:45:26.753Z,4.38
2023-05-02T09:46:40.452Z,4.07
2023-05-02T09:47:42.762Z,4.00
2023-05-02T09:48:56.268Z,3.75
2023-05-02T09:49:58.404Z,3.70
2023-05-02T09:51:01.491Z,3.10
2023-05-02T09:52:17.472Z,3.67
2023-05-02T09:53:19.594Z,3.17
2023-05-02T09:54:37.399Z,3.35
2023-05-02T09:55:39.899Z,3.55
2023-05-02T09:56:57.707Z,3.35
2023-05-02T09:58:00.167Z,3.63
2023-05-02T09:59:15.418Z,3.67
2023-05-02T10:00:19.629Z,3.63
2023-05-02T10:01:21.788Z,3.40
2023-05-02T10:02:24.982Z,3.60
2023-05-02T10:03:29.201Z,3.72
2023-05-02T10:04:33.418Z,3.45
2023-05-02T10:05:39.651Z,3.97
2023-05-02T10:06:44.054Z,3.70
2023-05-02T10:07:46.677Z,3.50
2023-05-02T10:08:49.472Z,3.65
2023-05-02T10:09:54.814Z,3.67
2023-05-02T10:10:58.956Z,3.78
2023-05-02T10:12:06.726Z,4.25
2023-05-02T10:13:09.186Z,3.88
2023-05-02T10:14:12.419Z,3.75
2023-05-02T10:15:15.840Z,3.63
2023-05-02T10:16:22.848Z,3.72
2023-05-02T10:17:42.325Z,3.83
2023-05-02T10:19:04.099Z,3.72
2023-05-02T10:20:07.887Z,3.38
2023-05-02T10:21:11.889Z,4.72
2023-05-02T10:22:14.090Z,5.45
2023-05-02T10:23:17.256Z,3.55
2023-05-02T10:24:20.050Z,4.07
2023-05-02T10:25:22.187Z,4.10
2023-05-02T10:26:24.915Z,4.30
2023-05-02T10:27:27.292Z,4.07
2023-05-02T10:28:30.607Z,3.17
2023-05-02T10:29:33.359Z,4.38
2023-05-02T10:30:35.612Z,4.47
2023-05-02T10:31:39.752Z,3.85
2023-05-02T10:32:42.615Z,3.95
2023-05-02T10:33:44.828Z,3.65
2023-05-02T10:34:47.806Z,3.78
2023-05-02T10:35:50.406Z,4.10
2023-05-02T10:36:52.572Z,3.72
2023-05-02T10:37:55.512Z,3.92
2023-05-02T10:38:57.713Z,3.92
2023-05-02T10:40:01.013Z,3.80
2023-05-02T10:41:07.719Z,4.03
2023-05-02T10:42:10.652Z,4.00
2023-05-02T10:43:16.304Z,3.97
2023-05-02T10:44:19.356Z,4.18
2023-05-02T10:45:32.024Z,5.10
2023-05-02T10:46:40.622Z,5.10
2023-05-02T10:47:43.637Z,4.00
2023-05-02T10:49:00.894Z,3.38
2023-05-02T10:50:04.863Z,3.70
2023-05-02T10:51:09.996Z,3.75
2023-05-02T10:52:34.567Z,4.30
2023-05-02T10:53:39.707Z,3.75
2023-05-02T10:54:41.860Z,4.18
2023-05-02T10:55:44.440Z,4.10
2023-05-02T10:57:06.758Z,4.35
2023-05-02T10:58:09.316Z,3.60
2023-05-02T10:59:31.680Z,4.25
2023-05-02T11:00:34.558Z,3.97
2023-05-02T11:01:38.202Z,3.90
2023-05-02T11:02:43.409Z,3.95
2023-05-02T11:04:01.109Z,4.03
2023-05-02T11:05:06.228Z,3.40
2023-05-02T11:06:08.451Z,4.00
2023-05-02T11:07:13.615Z,3.70
2023-05-02T11:08:15.753Z,4.68
2023-05-02T11:09:18.643Z,3.90
2023-05-02T11:10:20.753Z,3.78
2023-05-02T11:11:42.754Z,3.85
2023-05-02T11:12:50.976Z,3.78
2023-05-02T11:13:53.111Z,3.80
2023-05-02T11:14:55.363Z,3.42
2023-05-02T11:15:57.611Z,3.80
2023-05-02T11:16:59.856Z,3.60
2023-05-02T11:18:14.690Z,3.72
2023-05-02T11:19:16.921Z,3.42
2023-05-02T11:20:20.133Z,4.22
2023-05-02T11:21:29.597Z,4.30
2023-05-02T11:22:32.263Z,4.45
2023-05-02T11:23:36.975Z,3.75
2023-05-02T11:24:44.840Z,3.85
2023-05-02T11:26:22.135Z,3.80
2023-05-02T11:27:30.261Z,3.90
2023-05-02T11:28:39.210Z,3.63
2023-05-02T11:29:57.435Z,4.05
2023-05-02T11:30:59.572Z,3.90
2023-05-02T11:32:01.718Z,3.92
2023-05-02T11:33:06.712Z,4.03
2023-05-02T11:34:08.943Z,3.60
2023-05-02T11:35:21.839Z,4.10
2023-05-02T11:36:30.411Z,3.90
2023-05-02T11:37:33.259Z,3.55
2023-05-02T11:38:38.911Z,4.00
2023-05-02T11:39:41.608Z,4.10
2023-05-02T11:41:00.064Z,3.78
2023-05-02T11:42:02.353Z,4.20
2023-05-02T11:43:15.510Z,3.60
2023-05-02T11:44:17.826Z,3.30
2023-05-02T11:45:21.132Z,3.50
2023-05-02T11:46:23.604Z,3.78
2023-05-02T11:47:27.405Z,4.53
2023-05-02T11:48:30.764Z,3.53
2023-05-02T11:49:32.957Z,3.50
2023-05-02T11:50:51.663Z,3.70
2023-05-02T11:51:53.798Z,3.65
2023-05-02T11:52:56.087Z,3.75
2023-05-02T11:53:58.203Z,3.65
2023-05-02T11:55:00.728Z,3.63
2023-05-02T11:56:04.689Z,3.50
2023-05-02T11:57:07.658Z,3.80
2023-05-02T11:58:13.888Z,3.88
2023-05-02T11:59:16.018Z,4.43
2023-05-02T12:00:18.525Z,5.03
2023-05-02T12:01:20.704Z,10.23
2023-05-02T12:02:38.533Z,10.80
2023-05-02T12:03:41.487Z,4.07
2023-05-02T12:04:44.814Z,4.97
2023-05-02T12:05:47.019Z,4.20
2023-05-02T12:06:58.522Z,4.00
2023-05-02T12:08:02.637Z,3.55
2023-05-02T12:09:09.542Z,3.67
2023-05-02T12:10:13.289Z,4.20
2023-05-02T12:11:16.751Z,3.38
2023-05-02T12:12:22.497Z,3.75
2023-05-02T12:13:26.362Z,3.47
2023-05-02T12:14:29.857Z,3.85
2023-05-02T12:15:32.016Z,3.80
2023-05-02T12:16:34.835Z,3.40
2023-05-02T12:17:53.112Z,3.50
2023-05-02T12:18:58.076Z,3.17
2023-05-02T12:20:00.920Z,2.92
2023-05-02T12:21:03.109Z,3.10
2023-05-02T12:22:06.351Z,3.58
2023-05-02T12:23:08.704Z,3.60
2023-05-02T12:24:11.487Z,3.63
2023-05-02T12:25:13.816Z,3.65
2023-05-02T12:26:25.689Z,3.40
2023-05-02T12:27:33.253Z,3.63
2023-05-02T12:28:49.359Z,3.53
2023-05-02T12:29:51.788Z,2.95
2023-05-02T12:30:53.943Z,3.40
2023-05-02T12:31:57.524Z,3.38
2023-05-02T12:33:04.165Z,3.50
2023-05-02T12:34:06.345Z,3.70
2023-05-02T12:35:21.786Z,3.40
2023-05-02T12:36:24.040Z,3.53
2023-05-02T12:37:27.438Z,3.00
2023-05-02T12:38:29.525Z,3.03
2023-05-02T12:39:57.825Z,3.10
2023-05-02T12:41:00.317Z,3.60
2023-05-02T12:42:15.153Z,3.40
2023-05-02T12:43:17.504Z,3.30
2023-05-02T12:44:37.005Z,3.10
2023-05-02T12:45:39.294Z,3.22
2023-05-02T12:46:58.593Z,3.40
2023-05-02T12:48:26.444Z,3.00
2023-05-02T12:49:28.540Z,3.10
2023-05-02T12:50:39.452Z,3.33
2023-05-02T12:51:42.179Z,3.35
2023-05-02T12:52:59.244Z,3.97
2023-05-02T12:55:36.061Z,3.30
2023-05-02T12:56:41.808Z,3.08
2023-05-02T12:57:44.314Z,3.30
2023-05-02T12:58:47.787Z,3.40
2023-05-02T12:59:54.498Z,3.15
2023-05-02T13:00:56.744Z,3.60
2023-05-02T13:01:59.859Z,3.40
2023-05-02T13:03:02.131Z,3.10
2023-05-02T13:04:05.720Z,3.58
2023-05-02T13:05:15.370Z,3.13
2023-05-02T13:06:18.010Z,3.55
2023-05-02T13:07:20.193Z,3.28
2023-05-02T13:08:22.376Z,3.50
2023-05-02T13:09:24.511Z,3.72
2023-05-02T13:10:27.899Z,3.40
2023-05-02T13:11:30.068Z,3.45
2023-05-02T13:12:32.462Z,3.75
2023-05-02T13:13:35.608Z,3.67
2023-05-02T13:14:37.912Z,3.20
2023-05-02T13:15:40.061Z,3.63
2023-05-02T13:16:42.262Z,3.72
2023-05-02T13:17:44.989Z,3.70
2023-05-02T13:18:48.079Z,3.78
2023-05-02T13:20:00.788Z,3.60
2023-05-02T13:21:05.046Z,3.50
2023-05-02T13:22:08.831Z,3.58
2023-05-02T13:23:11.078Z,3.78
2023-05-02T13:24:13.436Z,4.00
2023-05-02T13:25:15.616Z,3.83
2023-05-02T13:26:17.819Z,4.28
2023-05-02T13:27:20.098Z,3.42
2023-05-02T13:28:22.220Z,4.88
2023-05-02T13:29:24.447Z,4.00
2023-05-02T13:30:26.554Z,3.70
2023-05-02T13:31:28.790Z,4.53
2023-05-02T13:32:31.101Z,3.17
2023-05-02T13:33:33.389Z,3.47
2023-05-02T13:34:35.539Z,3.63
2023-05-02T13:35:37.788Z,3.55
2023-05-02T13:36:46.273Z,3.38
2023-05-02T13:37:48.656Z,3.33
2023-05-02T13:38:50.841Z,3.83
2023-05-02T13:39:52.921Z,3.75
2023-05-02T13:40:55.140Z,5.15
2023-05-02T13:41:57.242Z,3.40
2023-05-02T13:42:59.348Z,3.60
2023-05-02T13:44:01.426Z,4.90
2023-05-02T13:45:05.227Z,3.60
2023-05-02T13:46:07.469Z,3.83
2023-05-02T13:47:09.706Z,3.78
2023-05-02T13:48:12.289Z,3.65
2023-05-02T13:49:14.639Z,3.40
2023-05-02T13:50:16.917Z,3.67
2023-05-02T13:51:19.090Z,3.85
2023-05-02T13:52:21.230Z,3.88
2023-05-02T13:53:23.487Z,3.92
2023-05-02T13:54:26.239Z,3.80
2023-05-02T13:55:28.380Z,4.15
2023-05-02T13:56:30.787Z,4.55
2023-05-02T13:57:32.893Z,3.85
2023-05-02T13:58:34.993Z,3.20
2023-05-02T13:59:37.133Z,3.75
2023-05-02T14:00:39.223Z,4.20
2023-05-02T14:01:41.606Z,3.63
2023-05-02T14:02:44.094Z,4.18
2023-05-02T14:03:46.380Z,3.88
2023-05-02T14:04:48.549Z,3.58
2023-05-02T14:05:51.033Z,3.60
2023-05-02T14:06:53.424Z,3.67
2023-05-02T14:07:55.603Z,4.20
2023-05-02T14:08:57.692Z,3.17
2023-05-02T14:10:00.147Z,3.50
2023-05-02T14:11:04.685Z,3.38
2023-05-02T14:12:08.766Z,3.90
2023-05-02T14:13:11.052Z,3.92
2023-05-02T14:14:13.503Z,3.35
2023-05-02T14:15:15.992Z,3.33
2023-05-02T14:16:18.408Z,3.80
2023-05-02T14:17:21.399Z,3.42
2023-05-02T14:18:23.538Z,4.05
2023-05-02T14:19:25.695Z,3.70
2023-05-02T14:20:27.809Z,3.97
2023-05-02T14:21:29.895Z,4.38
2023-05-02T14:22:32.044Z,4.07